Time;durP1;ratioP1;P1;durP2;ratioP2;P2;SDS_P1;SDS_P2;PMS_P1;PMS_P2;Temp;Humidity;BMP_temperature;BMP_pressure;BME280_temperature;BME280_humidity;BME280_pressure;Samples;Min_cycle;Max_cycle;Signal;HPM_P1;HPM_P2
2022/05/15 04:01:36;;;;;;;8.02;5.30;;;9.30;99.90;;;;;;5532902;22;20052;-75
2022/05/15 04:04:02;;;;;;;5.75;4.82;;;9.30;99.90;;;;;;5097111;28;20046;-75
2022/05/15 04:06:28;;;;;;;7.03;4.88;;;9.30;99.90;;;;;;5097901;28;20058;-74
2022/05/15 04:08:54;;;;;;;4.82;4.20;;;9.40;99.90;;;;;;5097689;28;20041;-75
2022/05/15 04:11:19;;;;;;;6.60;4.50;;;9.40;99.90;;;;;;5097313;28;20028;-74
2022/05/15 04:13:45;;;;;;;5.53;4.03;;;9.40;99.90;;;;;;5119652;22;20051;-77
2022/05/15 04:16:11;;;;;;;6.45;4.53;;;9.40;99.90;;;;;;5097486;28;20041;-77
2022/05/15 04:18:37;;;;;;;6.07;4.18;;;9.40;99.90;;;;;;5097254;28;20512;-77
2022/05/15 04:21:03;;;;;;;5.63;4.13;;;9.40;99.90;;;;;;5097298;28;20036;-77
2022/05/15 04:23:29;;;;;;;6.80;4.60;;;9.40;99.90;;;;;;5097114;28;20555;-77
2022/05/15 04:25:55;;;;;;;5.90;4.32;;;9.40;99.90;;;;;;5096763;28;20040;-77
2022/05/15 04:28:22;;;;;;;6.65;4.40;;;9.50;99.90;;;;;;5096045;28;20035;-77
2022/05/15 04:30:48;;;;;;;5.57;4.10;;;9.50;99.90;;;;;;5095831;28;20055;-77
2022/05/15 04:33:13;;;;;;;5.47;4.30;;;9.50;99.90;;;;;;5096664;28;20045;-77
2022/05/15 04:35:39;;;;;;;6.88;4.10;;;9.60;99.90;;;;;;5095700;28;20040;-77
2022/05/15 04:38:06;;;;;;;6.18;4.50;;;9.60;99.90;;;;;;5096871;28;20028;-77
2022/05/15 04:40:32;;;;;;;6.45;4.32;;;9.60;99.90;;;;;;5096915;28;20542;-77
2022/05/15 04:42:58;;;;;;;7.65;4.63;;;9.60;99.90;;;;;;5095342;28;20040;-77
2022/05/15 04:45:23;;;;;;;4.75;4.03;;;9.70;99.90;;;;;;5095314;28;20032;-77
2022/05/15 04:47:50;;;;;;;7.00;4.70;;;9.70;99.90;;;;;;5096930;28;20028;-77
2022/05/15 04:50:16;;;;;;;7.03;4.40;;;9.70;99.90;;;;;;5096885;28;20101;-77
2022/05/15 04:52:42;;;;;;;6.40;4.38;;;9.80;99.90;;;;;;5095252;28;20052;-77
2022/05/15 04:55:08;;;;;;;5.60;4.43;;;9.90;99.90;;;;;;5095024;28;20033;-77
2022/05/15 04:57:33;;;;;;;5.03;4.22;;;10.00;99.90;;;;;;5096825;28;20067;-77
2022/05/15 04:59:59;;;;;;;5.65;4.30;;;10.00;99.90;;;;;;5096895;28;20442;-77
2022/05/15 05:02:25;;;;;;;5.10;4.30;;;10.10;99.90;;;;;;5096176;28;20036;-77
2022/05/15 05:04:50;;;;;;;7.10;4.80;;;10.10;99.90;;;;;;5094884;28;20433;-77
2022/05/15 05:07:16;;;;;;;6.70;4.20;;;10.20;99.90;;;;;;5096888;28;20043;-77
2022/05/15 05:09:41;;;;;;;4.85;4.20;;;10.30;99.90;;;;;;5096454;28;20036;-77
2022/05/15 05:12:07;;;;;;;5.13;4.22;;;10.30;99.90;;;;;;5096635;28;20032;-77
2022/05/15 05:14:33;;;;;;;6.85;4.25;;;10.40;99.90;;;;;;5095653;28;20040;-77
2022/05/15 05:16:59;;;;;;;6.68;4.60;;;10.50;99.90;;;;;;5096387;28;20037;-77
2022/05/15 05:19:24;;;;;;;5.25;4.03;;;10.60;99.90;;;;;;5096315;28;20020;-77
2022/05/15 05:21:50;;;;;;;5.95;4.20;;;10.70;99.90;;;;;;5094976;28;20036;-77
2022/05/15 05:24:15;;;;;;;7.30;4.57;;;10.80;99.90;;;;;;5095674;28;20029;-77
2022/05/15 05:26:41;;;;;;;10.93;4.90;;;10.90;99.90;;;;;;5094875;28;20127;-77
2022/05/15 05:29:06;;;;;;;6.43;4.93;;;11.10;99.90;;;;;;5095046;28;20033;-76
2022/05/15 05:31:32;;;;;;;8.32;5.13;;;11.20;99.90;;;;;;5094652;28;20527;-76
2022/05/15 05:33:58;;;;;;;7.20;4.93;;;11.40;99.90;;;;;;5096546;28;20820;-83
2022/05/15 05:36:24;;;;;;;8.10;4.97;;;11.50;99.90;;;;;;5097653;28;20037;-76
2022/05/15 05:38:50;;;;;;;9.00;5.07;;;11.60;99.90;;;;;;5096243;28;20310;-76
2022/05/15 05:41:15;;;;;;;10.73;5.45;;;11.70;99.90;;;;;;5096142;28;20367;-76
2022/05/15 05:43:41;;;;;;;7.80;4.90;;;11.80;99.90;;;;;;5095380;28;20460;-77
2022/05/15 05:46:06;;;;;;;7.90;5.10;;;12.00;99.90;;;;;;5094367;28;20511;-76
2022/05/15 05:48:32;;;;;;;8.32;4.95;;;12.10;99.90;;;;;;5094551;28;20032;-79
2022/05/15 05:50:58;;;;;;;7.57;4.55;;;12.10;99.90;;;;;;5094810;28;20059;-76
2022/05/15 05:53:23;;;;;;;5.43;4.82;;;12.20;99.90;;;;;;5095473;28;20486;-75
2022/05/15 05:55:49;;;;;;;8.80;4.93;;;12.20;99.90;;;;;;5096473;28;20107;-80
2022/05/15 05:58:15;;;;;;;6.35;5.10;;;12.30;99.90;;;;;;5096200;28;20398;-76
2022/05/15 06:00:40;;;;;;;6.50;5.18;;;12.30;99.90;;;;;;5096056;28;20037;-74
2022/05/15 06:05:52;;;;;;;5.72;4.93;;;12.50;99.90;;;;;;5096409;28;20083;-74
2022/05/15 06:08:18;;;;;;;9.60;5.93;;;12.60;99.90;;;;;;5095668;28;20032;-74
2022/05/15 06:10:44;;;;;;;7.18;5.07;;;12.70;99.90;;;;;;5095812;28;20485;-74
2022/05/15 06:13:10;;;;;;;6.45;5.35;;;12.70;99.90;;;;;;5095144;28;20044;-75
2022/05/15 06:15:36;;;;;;;6.32;4.60;;;12.80;99.90;;;;;;5093882;28;20028;-75
2022/05/15 06:18:04;;;;;;;8.73;4.72;;;12.90;99.90;;;;;;5095374;28;20043;-75
2022/05/15 06:20:33;;;;;;;6.55;4.80;;;13.00;99.90;;;;;;5095577;28;20056;-75
2022/05/15 06:22:59;;;;;;;6.00;4.72;;;13.10;99.90;;;;;;5095461;28;20513;-75
2022/05/15 06:25:25;;;;;;;5.72;4.43;;;13.20;99.90;;;;;;5095646;28;20032;-73
2022/05/15 06:27:51;;;;;;;5.05;4.38;;;13.30;99.90;;;;;;5095626;28;20482;-74
2022/05/15 06:30:18;;;;;;;6.03;4.72;;;13.30;99.90;;;;;;5096148;28;20043;-73
2022/05/15 06:32:43;;;;;;;6.85;5.00;;;13.50;99.90;;;;;;5094125;28;20048;-77
2022/05/15 06:35:11;;;;;;;6.22;4.65;;;13.60;99.90;;;;;;5095428;28;20378;-76
2022/05/15 06:37:37;;;;;;;7.45;4.82;;;13.70;99.90;;;;;;5095585;28;20448;-77
2022/05/15 06:40:04;;;;;;;5.38;4.70;;;13.80;99.90;;;;;;5095840;28;20036;-77
2022/05/15 06:42:30;;;;;;;5.88;4.57;;;13.90;99.90;;;;;;5093602;28;20083;-75
2022/05/15 06:44:56;;;;;;;5.65;4.70;;;14.00;99.90;;;;;;5093677;28;20574;-78
2022/05/15 06:47:24;;;;;;;7.95;4.40;;;14.20;99.90;;;;;;5095498;28;20110;-76
2022/05/15 06:49:49;;;;;;;6.93;4.05;;;14.30;99.90;;;;;;5095389;28;20120;-77
2022/05/15 06:52:16;;;;;;;7.85;4.80;;;14.50;99.90;;;;;;5094965;28;20135;-75
2022/05/15 06:54:42;;;;;;;6.43;4.10;;;14.80;99.90;;;;;;5080226;28;20025;-77
2022/05/15 06:59:52;;;;;;;7.55;4.40;;;15.10;99.90;;;;;;5077255;28;20032;-76
2022/05/15 07:02:18;;;;;;;8.55;4.10;;;15.30;99.90;;;;;;5074124;28;20037;-77
2022/05/15 07:04:44;;;;;;;5.32;4.18;;;15.50;99.90;;;;;;5075543;28;20100;-76
2022/05/15 07:07:10;;;;;;;4.97;4.28;;;15.60;99.90;;;;;;5077222;28;20100;-78
2022/05/15 07:09:36;;;;;;;8.43;4.47;;;15.80;99.90;;;;;;5074634;28;20033;-78
2022/05/15 07:12:03;;;;;;;6.65;4.30;;;15.90;99.90;;;;;;5074042;28;20041;-76
2022/05/15 07:14:29;;;;;;;6.60;4.45;;;16.00;99.90;;;;;;5075443;28;20525;-79
2022/05/15 07:16:55;;;;;;;6.07;4.85;;;16.20;99.90;;;;;;5077012;28;20033;-80
2022/05/15 07:19:20;;;;;;;7.68;4.50;;;16.40;99.90;;;;;;5075332;28;20032;-77
2022/05/15 07:21:46;;;;;;;6.95;4.95;;;16.60;99.90;;;;;;5073805;28;20068;-77
2022/05/15 07:24:12;;;;;;;9.77;4.78;;;16.90;99.90;;;;;;5074326;28;20119;-76
2022/05/15 07:26:44;;;;;;;6.47;4.60;;;17.10;99.90;;;;;;5072897;28;20029;-77
2022/05/15 07:29:10;;;;;;;7.90;4.50;;;17.40;99.90;;;;;;5075000;28;20469;-76
2022/05/15 07:31:35;;;;;;;6.35;4.30;;;17.70;99.90;;;;;;5074942;28;20037;-75
2022/05/15 07:34:01;;;;;;;7.30;3.88;;;17.80;99.90;;;;;;5073987;28;20041;-76
2022/05/15 07:36:27;;;;;;;5.88;4.20;;;18.10;99.90;;;;;;5075059;28;20033;-77
2022/05/15 07:38:52;;;;;;;7.07;4.07;;;18.40;99.90;;;;;;5074749;28;20492;-78
2022/05/15 07:41:18;;;;;;;8.80;4.25;;;18.70;99.90;;;;;;5074847;28;20039;-76
2022/05/15 07:43:43;;;;;;;6.40;4.30;;;18.90;99.90;;;;;;5073546;28;20091;-77
2022/05/15 07:46:09;;;;;;;5.00;4.10;;;19.30;99.90;;;;;;5074486;28;20079;-75
2022/05/15 07:48:35;;;;;;;7.18;4.10;;;19.40;99.70;;;;;;5074276;28;20028;-75
2022/05/15 07:51:00;;;;;;;6.55;3.97;;;19.70;99.90;;;;;;5073970;28;20471;-74
2022/05/15 07:53:26;;;;;;;5.47;4.32;;;19.80;98.90;;;;;;5072053;28;20037;-79
2022/05/15 07:55:54;;;;;;;7.90;3.90;;;19.80;98.00;;;;;;5074758;28;20053;-75
2022/05/15 07:58:20;;;;;;;6.18;3.95;;;19.90;98.30;;;;;;5072581;28;20103;-75
2022/05/15 08:00:45;;;;;;;4.28;3.50;;;20.00;98.80;;;;;;5075372;28;20033;-75
2022/05/15 08:03:13;;;;;;;6.63;3.20;;;20.40;96.90;;;;;;5075394;28;20115;-75
2022/05/15 08:08:24;;;;;;;5.13;3.05;;;20.90;96.00;;;;;;5077429;28;20514;-75
2022/05/15 08:10:50;;;;;;;11.52;3.33;;;21.20;95.10;;;;;;5077289;28;20079;-75
2022/05/15 08:13:20;;;;;;;9.13;2.85;;;21.30;95.10;;;;;;5075018;28;20048;-76
2022/05/15 08:15:46;;;;;;;3.60;2.90;;;21.40;93.80;;;;;;5076954;28;20056;-75
2022/05/15 08:23:59;;;;;;;7.07;2.70;;;21.60;93.00;;;;;;5076836;28;20128;-75
2022/05/15 08:26:26;;;;;;;5.38;2.80;;;21.60;93.40;;;;;;5077004;28;20033;-75
2022/05/15 08:28:53;;;;;;;6.47;3.00;;;22.00;92.90;;;;;;5077062;28;20124;-76
2022/05/15 08:31:20;;;;;;;4.50;2.92;;;22.30;91.80;;;;;;5075518;28;20041;-76
2022/05/15 08:33:46;;;;;;;5.68;2.75;;;22.60;91.70;;;;;;5076335;28;20110;-75
2022/05/15 08:36:12;;;;;;;6.53;2.72;;;22.80;90.80;;;;;;5076763;28;20040;-75
2022/05/15 08:38:39;;;;;;;5.07;2.70;;;23.10;89.90;;;;;;5076803;28;20516;-75
2022/05/15 08:41:16;;;;;;;4.65;2.38;;;23.20;88.80;;;;;;5075130;28;20494;-76
2022/05/15 08:43:42;;;;;;;4.50;2.53;;;23.20;88.20;;;;;;5074743;28;20037;-75
2022/05/15 08:46:39;;;;;;;5.60;2.53;;;23.30;87.20;;;;;;5076649;28;20533;-76
2022/05/15 08:49:16;;;;;;;7.38;2.63;;;23.20;86.50;;;;;;5046167;28;20536;-75
2022/05/15 08:52:08;;;;;;;6.40;2.42;;;23.30;87.90;;;;;;5090468;28;20104;-75
2022/05/15 08:54:40;;;;;;;3.58;2.20;;;23.40;86.10;;;;;;5070980;28;20040;-75
2022/05/15 08:57:12;;;;;;;4.07;2.10;;;23.60;86.80;;;;;;5115751;28;20030;-76
2022/05/15 08:59:51;;;;;;;5.68;2.38;;;23.90;83.20;;;;;;5117644;27;20036;-75
2022/05/15 09:02:17;;;;;;;4.18;1.80;;;23.90;81.60;;;;;;5117140;28;20070;-76
2022/05/15 09:04:42;;;;;;;4.07;1.88;;;24.10;81.30;;;;;;5115491;28;20064;-76
2022/05/15 09:07:39;;;;;;;4.95;2.25;;;24.30;75.30;;;;;;5117034;28;20493;-76
2022/05/15 09:10:41;;;;;;;4.53;2.00;;;24.60;76.10;;;;;;5115426;27;20043;-75
2022/05/15 09:13:32;;;;;;;3.72;2.15;;;24.70;76.30;;;;;;5116135;27;20128;-76
2022/05/15 09:16:00;;;;;;;7.10;2.28;;;25.00;73.40;;;;;;5103773;28;20074;-76
2022/05/15 09:18:27;;;;;;;3.65;2.30;;;25.10;71.90;;;;;;5115299;28;20052;-76
2022/05/15 09:20:53;;;;;;;4.63;1.95;;;25.40;72.80;;;;;;5116829;27;20028;-77
2022/05/15 09:23:40;;;;;;;2.80;1.70;;;25.50;71.70;;;;;;5116860;27;20040;-76
2022/05/15 09:26:06;;;;;;;5.90;1.85;;;25.60;70.20;;;;;;5115621;28;20056;-75
2022/05/15 09:28:49;;;;;;;4.03;1.90;;;25.70;67.90;;;;;;5116807;28;20066;-76
2022/05/15 09:31:42;;;;;;;3.55;1.50;;;25.50;65.10;;;;;;5116076;27;20035;-77
2022/05/15 09:34:21;;;;;;;6.00;2.10;;;25.40;66.70;;;;;;5109778;27;20051;-82
2022/05/15 09:36:49;;;;;;;3.75;2.10;;;25.50;66.80;;;;;;5116124;28;20030;-77
2022/05/15 09:39:24;;;;;;;2.95;1.70;;;25.90;65.60;;;;;;5115746;28;20036;-80
2022/05/15 09:44:43;;;;;;;3.65;1.70;;;26.10;61.20;;;;;;5115838;28;20132;-78
2022/05/15 09:47:31;;;;;;;5.95;2.22;;;26.30;60.70;;;;;;5114811;28;20550;-77
2022/05/15 09:49:57;;;;;;;3.75;1.73;;;26.10;62.50;;;;;;5116052;27;20032;-77
2022/05/15 09:52:32;;;;;;;4.43;1.50;;;26.40;60.30;;;;;;5114724;27;20040;-77
2022/05/15 09:55:09;;;;;;;3.05;1.52;;;26.60;61.90;;;;;;5098755;27;20035;-78
2022/05/15 09:57:36;;;;;;;1.95;1.45;;;26.70;57.80;;;;;;5095090;28;20032;-77
2022/05/15 10:00:08;;;;;;;2.88;1.42;;;26.60;57.90;;;;;;5095959;28;20031;-83
2022/05/15 10:02:39;;;;;;;4.95;1.80;;;26.70;57.70;;;;;;5094455;28;20031;-78
2022/05/15 10:05:28;;;;;;;4.43;1.77;;;26.70;59.10;;;;;;5094040;28;20036;-78
2022/05/15 10:08:26;;;;;;;3.70;1.60;;;26.70;56.50;;;;;;5095509;28;20523;-78
2022/05/15 10:11:00;;;;;;;4.97;1.75;;;26.80;55.80;;;;;;5095650;28;20028;-78
2022/05/15 10:13:25;;;;;;;3.03;1.58;;;26.80;56.10;;;;;;5125021;22;20838;-75
2022/05/15 10:15:54;;;;;;;4.97;1.70;;;27.00;55.40;;;;;;5115635;28;20040;-75
2022/05/15 10:18:32;;;;;;;5.85;1.55;;;27.10;55.80;;;;;;5115800;28;20127;-75
2022/05/15 10:21:01;;;;;;;4.90;1.88;;;27.30;57.40;;;;;;5116668;28;20442;-74
2022/05/15 10:23:30;;;;;;;4.10;1.48;;;27.40;55.40;;;;;;5107506;28;20025;-76
2022/05/15 10:26:05;;;;;;;4.35;1.70;;;27.40;54.20;;;;;;5095816;28;20048;-77
2022/05/15 10:28:45;;;;;;;2.70;1.40;;;27.60;57.00;;;;;;5096413;28;20037;-76
2022/05/15 10:31:26;;;;;;;3.00;1.45;;;27.40;54.30;;;;;;5096178;28;20039;-77
2022/05/15 10:33:56;;;;;;;3.22;1.70;;;27.60;54.90;;;;;;5096174;28;20068;-77
2022/05/15 10:36:40;;;;;;;4.00;1.42;;;27.60;53.90;;;;;;5096041;28;20036;-76
2022/05/15 10:39:32;;;;;;;2.92;1.60;;;27.90;54.10;;;;;;5082571;28;20056;-80
2022/05/15 10:42:26;;;;;;;3.08;1.52;;;28.10;54.00;;;;;;5096695;28;20037;-77
2022/05/15 10:45:21;;;;;;;2.90;1.48;;;28.30;56.00;;;;;;5095773;28;20028;-74
2022/05/15 10:48:12;;;;;;;2.67;1.48;;;28.30;55.50;;;;;;5096624;28;20032;-75
2022/05/15 10:50:59;;;;;;;2.60;1.60;;;28.30;53.70;;;;;;5096653;28;20033;-74
2022/05/15 10:59:19;;;;;;;4.43;1.70;;;28.50;55.80;;;;;;5073437;28;20116;-75
2022/05/15 11:02:30;;;;;;;3.17;1.58;;;28.50;52.80;;;;;;5046192;28;20485;-74
2022/05/15 11:05:07;;;;;;;5.40;1.60;;;28.40;52.90;;;;;;5073776;28;20052;-77
2022/05/15 11:07:47;;;;;;;3.17;1.60;;;28.30;53.60;;;;;;5074404;28;20033;-76
2022/05/15 11:10:25;;;;;;;4.70;1.65;;;28.60;52.20;;;;;;5074845;28;20041;-76
2022/05/15 11:13:00;;;;;;;4.30;1.73;;;28.80;55.30;;;;;;5073346;28;20133;-75
2022/05/15 11:16:02;;;;;;;5.35;1.95;;;28.70;53.10;;;;;;5074179;28;20512;-74
2022/05/15 11:19:02;;;;;;;5.68;1.75;;;28.60;52.10;;;;;;5074009;28;20025;-77
2022/05/15 11:22:02;;;;;;;3.60;1.70;;;28.90;53.60;;;;;;5055760;28;20029;-80
2022/05/15 11:24:44;;;;;;;3.78;2.05;;;28.80;54.10;;;;;;5054756;28;20033;-75
2022/05/15 11:27:25;;;;;;;3.38;1.55;;;29.00;52.80;;;;;;5074672;28;20025;-75
2022/05/15 11:29:54;;;;;;;4.88;1.90;;;29.00;51.00;;;;;;5055959;28;20120;-74
2022/05/15 11:32:27;;;;;;;3.63;1.75;;;28.90;53.40;;;;;;5074191;28;20033;-74
2022/05/15 11:35:17;;;;;;;6.35;1.95;;;29.00;53.50;;;;;;5074998;28;20108;-75
2022/05/15 11:37:50;;;;;;;6.10;1.90;;;29.20;53.30;;;;;;5077785;28;20032;-74
2022/05/15 11:40:50;;;;;;;3.55;1.52;;;29.20;53.20;;;;;;5077754;28;20108;-75
2022/05/15 11:43:31;;;;;;;3.30;1.58;;;29.00;52.60;;;;;;5058140;28;20502;-75
2022/05/15 11:46:11;;;;;;;4.07;1.80;;;29.20;55.80;;;;;;5059357;28;20040;-76
2022/05/15 11:48:53;;;;;;;3.08;1.80;;;29.20;56.20;;;;;;5059124;28;20427;-75
2022/05/15 11:51:31;;;;;;;4.53;1.85;;;29.40;54.90;;;;;;5077738;28;20083;-74
2022/05/15 11:54:42;;;;;;;4.65;1.80;;;29.20;53.00;;;;;;5058940;28;20099;-75
2022/05/15 11:57:29;;;;;;;4.30;1.70;;;29.20;51.90;;;;;;5059823;28;20086;-74
2022/05/15 11:59:57;;;;;;;3.03;1.63;;;29.30;51.50;;;;;;5077932;28;20037;-76
2022/05/15 12:02:46;;;;;;;4.18;1.42;;;29.60;52.30;;;;;;5077546;28;20065;-76
2022/05/15 12:05:29;;;;;;;3.75;1.50;;;29.70;53.50;;;;;;5077538;28;20033;-75
2022/05/15 12:08:07;;;;;;;4.03;1.80;;;29.80;51.60;;;;;;5078282;28;20104;-76
2022/05/15 12:10:35;;;;;;;3.80;1.50;;;30.30;53.90;;;;;;5078061;28;20052;-76
2022/05/15 12:13:04;;;;;;;4.30;1.73;;;30.10;53.70;;;;;;5077767;28;20049;-76
2022/05/15 12:15:45;;;;;;;4.90;1.67;;;30.20;53.70;;;;;;5078039;28;20040;-75
2022/05/15 12:18:32;;;;;;;2.30;1.60;;;30.10;51.50;;;;;;5077845;28;20033;-77
2022/05/15 12:20:58;;;;;;;2.75;1.40;;;30.30;50.40;;;;;;5077602;28;20033;-76
2022/05/15 12:23:33;;;;;;;2.30;1.40;;;30.20;52.00;;;;;;5077002;28;20044;-79
2022/05/15 12:26:28;;;;;;;5.78;1.90;;;29.90;52.20;;;;;;5077099;28;20514;-78
2022/05/15 12:29:44;;;;;;;3.45;1.50;;;30.20;51.80;;;;;;5080042;28;20554;-78
2022/05/15 12:32:17;;;;;;;5.32;1.77;;;30.50;50.20;;;;;;4999518;28;20443;-78
2022/05/15 12:34:46;;;;;;;4.82;1.67;;;30.50;52.90;;;;;;5075475;28;20041;-78
2022/05/15 12:37:18;;;;;;;6.15;1.80;;;30.50;51.30;;;;;;5070429;28;20406;-77
2022/05/15 12:39:50;;;;;;;2.40;1.48;;;30.60;54.10;;;;;;5071774;28;20029;-77
2022/05/15 12:42:23;;;;;;;3.53;1.73;;;30.80;49.50;;;;;;5088516;28;20526;-77
2022/05/15 12:45:05;;;;;;;4.32;1.58;;;30.80;49.40;;;;;;5058906;28;20126;-76
2022/05/15 12:47:37;;;;;;;5.70;1.40;;;30.40;49.20;;;;;;5077464;28;20041;-76
2022/05/15 12:50:12;;;;;;;2.88;1.55;;;30.00;52.10;;;;;;5078349;28;20025;-77
2022/05/15 12:52:40;;;;;;;3.30;1.85;;;30.20;52.10;;;;;;5077413;28;20131;-76
2022/05/15 12:55:20;;;;;;;4.60;1.60;;;30.50;51.40;;;;;;5077002;28;20506;-76
2022/05/15 12:57:48;;;;;;;3.85;1.83;;;30.80;47.90;;;;;;5077526;28;20486;-78
2022/05/15 13:00:18;;;;;;;2.35;1.42;;;30.80;50.10;;;;;;5076766;28;20033;-77
2022/05/15 13:02:47;;;;;;;4.22;1.40;;;30.90;50.70;;;;;;5077446;28;20781;-78
2022/05/15 13:05:29;;;;;;;4.88;1.38;;;30.40;50.60;;;;;;5076563;28;20132;-80
2022/05/15 13:08:01;;;;;;;4.47;1.38;;;30.80;48.10;;;;;;5058563;28;20037;-75
2022/05/15 13:10:28;;;;;;;2.92;1.92;;;30.50;48.70;;;;;;5058375;28;20595;-78
2022/05/15 13:13:33;;;;;;;3.22;1.65;;;30.50;49.30;;;;;;5075592;28;20037;-78
2022/05/15 13:16:00;;;;;;;4.20;1.67;;;30.70;50.30;;;;;;5076426;28;20052;-77
2022/05/15 13:18:29;;;;;;;3.03;1.60;;;31.10;50.00;;;;;;5098505;28;20037;-77
2022/05/15 13:21:01;;;;;;;2.38;1.40;;;31.80;51.60;;;;;;5097314;28;20036;-77
2022/05/15 13:23:49;;;;;;;3.15;1.60;;;32.20;47.40;;;;;;5096377;28;20029;-78
2022/05/15 13:26:23;;;;;;;4.13;1.50;;;32.90;47.10;;;;;;5097120;28;20494;-75
2022/05/15 13:28:49;;;;;;;4.53;1.70;;;33.60;43.40;;;;;;5097513;28;20036;-75
2022/05/15 13:31:15;;;;;;;2.65;1.50;;;33.50;45.90;;;;;;5097389;28;20494;-77
2022/05/15 13:33:43;;;;;;;2.83;1.60;;;33.80;46.20;;;;;;5096870;28;20040;-77
2022/05/15 13:36:14;;;;;;;2.92;1.73;;;34.50;42.00;;;;;;5097953;28;20028;-77
2022/05/15 13:44:17;;;;;;;2.10;1.35;;;35.20;43.60;;;;;;5097908;28;20040;-78
2022/05/15 13:47:07;;;;;;;4.20;1.80;;;35.10;41.50;;;;;;5080010;28;20123;-78
2022/05/15 13:49:47;;;;;;;3.13;1.30;;;35.30;43.30;;;;;;5096953;28;20033;-77
2022/05/15 13:52:24;;;;;;;3.63;1.70;;;34.00;43.60;;;;;;5074605;28;20494;-81
2022/05/15 13:54:50;;;;;;;3.08;1.48;;;34.70;41.90;;;;;;5080267;28;20513;-77
2022/05/15 13:57:15;;;;;;;4.32;1.70;;;36.00;40.60;;;;;;5056009;28;20040;-77
2022/05/15 13:59:49;;;;;;;3.45;1.80;;;36.90;39.50;;;;;;5075176;28;20047;-76
2022/05/15 14:02:29;;;;;;;3.13;1.60;;;37.00;39.00;;;;;;5075333;28;20041;-77
2022/05/15 14:04:59;;;;;;;4.28;1.80;;;37.30;40.50;;;;;;5075307;28;20025;-76
2022/05/15 14:07:33;;;;;;;2.60;1.77;;;37.00;38.30;;;;;;5075811;28;20060;-77
2022/05/15 14:10:16;;;;;;;3.67;1.90;;;36.70;36.70;;;;;;5075165;28;20469;-77
2022/05/15 14:12:42;;;;;;;3.47;1.70;;;36.70;38.30;;;;;;5056910;28;20718;-77
2022/05/15 14:15:08;;;;;;;2.17;1.65;;;37.50;39.50;;;;;;5075669;28;20056;-77
2022/05/15 14:17:45;;;;;;;2.92;1.65;;;37.90;36.40;;;;;;5075456;28;20029;-77
2022/05/15 14:20:11;;;;;;;3.78;2.42;;;38.90;37.50;;;;;;5076304;28;20024;-77
2022/05/15 14:22:39;;;;;;;2.83;2.33;;;38.70;38.10;;;;;;5077662;28;20040;-78
2022/05/15 14:25:07;;;;;;;4.47;1.83;;;38.60;36.80;;;;;;5079465;28;20120;-78
2022/05/15 14:27:34;;;;;;;3.60;1.95;;;38.80;33.80;;;;;;5079534;28;20033;-78
2022/05/15 14:30:00;;;;;;;3.28;2.00;;;38.30;35.50;;;;;;5080794;28;20024;-78
2022/05/15 14:32:28;;;;;;;5.00;2.53;;;38.00;36.10;;;;;;5080073;28;20041;-79
2022/05/15 14:34:55;;;;;;;3.20;1.90;;;37.40;35.60;;;;;;5075287;28;20118;-76
2022/05/15 14:37:22;;;;;;;3.85;2.15;;;38.00;35.60;;;;;;5056946;28;20417;-77
2022/05/15 14:40:15;;;;;;;3.85;2.95;;;37.80;35.10;;;;;;5056641;28;20036;-76
2022/05/15 14:42:41;;;;;;;4.68;3.17;;;38.10;34.10;;;;;;5056248;28;20090;-76
2022/05/15 14:45:17;;;;;;;10.63;6.13;;;38.40;34.90;;;;;;5075796;28;20028;-75
2022/05/15 14:47:46;;;;;;;9.38;8.48;;;39.40;35.70;;;;;;5057127;28;20073;-76
2022/05/15 14:50:12;;;;;;;8.60;5.03;;;39.20;34.30;;;;;;5056590;28;20033;-76
2022/05/15 14:52:38;;;;;;;4.10;3.58;;;38.90;34.10;;;;;;5074686;28;20469;-77
2022/05/15 14:55:06;;;;;;;32.10;28.88;;;39.90;36.40;;;;;;5074104;28;20501;-76
2022/05/15 14:57:31;;;;;;;13.52;10.77;;;40.00;32.40;;;;;;5075876;28;20033;-77
2022/05/15 15:00:00;;;;;;;7.65;6.28;;;40.80;32.00;;;;;;5076800;28;20036;-77
2022/05/15 15:02:26;;;;;;;5.78;2.47;;;40.40;34.70;;;;;;5076792;28;20040;-77
2022/05/15 15:04:51;;;;;;;4.75;3.25;;;40.20;34.20;;;;;;5076034;28;20029;-77
2022/05/15 15:07:17;;;;;;;5.88;1.90;;;40.40;32.30;;;;;;5077127;28;20649;-77
2022/05/15 15:09:43;;;;;;;3.10;1.70;;;40.70;32.70;;;;;;5079432;28;20029;-77
2022/05/15 15:12:12;;;;;;;5.78;2.88;;;41.00;36.00;;;;;;5061851;28;20033;-76
2022/05/15 15:14:39;;;;;;;27.48;4.88;;;40.70;31.80;;;;;;5078069;28;20025;-78
2022/05/15 15:17:04;;;;;;;2.42;1.73;;;40.40;35.50;;;;;;5060403;28;20128;-76
2022/05/15 15:19:30;;;;;;;2.47;1.63;;;39.70;34.10;;;;;;5078087;28;20119;-76
2022/05/15 15:21:58;;;;;;;2.95;1.75;;;39.30;34.80;;;;;;5078198;28;20386;-77
2022/05/15 15:24:25;;;;;;;3.47;1.80;;;39.40;33.80;;;;;;5078682;28;20533;-76
2022/05/15 15:26:51;;;;;;;3.50;1.67;;;40.50;34.30;;;;;;5087528;28;20033;-75
2022/05/15 15:29:18;;;;;;;3.55;1.80;;;41.10;31.50;;;;;;5082664;28;20033;-76
2022/05/15 15:31:45;;;;;;;6.07;1.80;;;41.00;33.10;;;;;;5060131;28;20116;-76
2022/05/15 15:34:14;;;;;;;4.22;1.80;;;41.40;32.40;;;;;;5077861;28;20033;-75
2022/05/15 15:36:46;;;;;;;2.60;1.70;;;40.60;31.30;;;;;;5078320;28;20809;-76
2022/05/15 15:39:12;;;;;;;1.73;1.55;;;40.40;31.60;;;;;;5077717;28;20073;-76
2022/05/15 15:41:38;;;;;;;3.15;2.00;;;40.10;36.30;;;;;;5078274;28;20029;-76
2022/05/15 15:44:05;;;;;;;3.55;1.70;;;40.00;37.90;;;;;;5078842;28;20052;-76
2022/05/15 15:46:32;;;;;;;5.30;1.67;;;40.10;32.30;;;;;;5062327;28;20029;-77
2022/05/15 15:48:58;;;;;;;4.70;2.10;;;40.80;32.70;;;;;;5060570;28;20096;-78
2022/05/15 15:51:36;;;;;;;3.20;1.63;;;40.60;31.20;;;;;;5064215;28;20485;-78
2022/05/15 15:54:10;;;;;;;4.25;1.73;;;41.00;33.20;;;;;;5062549;28;20037;-78
2022/05/15 15:56:44;;;;;;;2.58;1.55;;;39.60;35.20;;;;;;5061757;28;20036;-79
2022/05/15 15:59:10;;;;;;;2.38;1.92;;;39.90;33.70;;;;;;5081032;28;20761;-76
2022/05/15 16:01:38;;;;;;;2.90;1.67;;;40.00;32.90;;;;;;5079544;28;20033;-77
2022/05/15 16:04:08;;;;;;;4.53;1.80;;;40.30;36.00;;;;;;5077525;28;20033;-77
2022/05/15 16:06:37;;;;;;;3.38;1.80;;;40.20;34.30;;;;;;5077637;28;20033;-77
2022/05/15 16:09:03;;;;;;;3.42;1.98;;;40.00;33.90;;;;;;5078643;28;20065;-77
2022/05/15 16:11:41;;;;;;;4.57;1.60;;;39.50;33.20;;;;;;5079021;28;20513;-77
2022/05/15 16:14:09;;;;;;;2.95;1.70;;;38.60;34.00;;;;;;5060234;28;20049;-79
2022/05/15 16:16:35;;;;;;;4.95;1.60;;;39.10;35.90;;;;;;5077139;28;20029;-77
2022/05/15 16:19:01;;;;;;;3.60;1.80;;;39.50;36.00;;;;;;5079072;28;20146;-76
2022/05/15 16:21:44;;;;;;;3.47;1.67;;;39.50;33.30;;;;;;5075996;28;20517;-76
2022/05/15 16:24:10;;;;;;;2.78;2.45;;;39.00;34.50;;;;;;5058650;28;20146;-76
2022/05/15 16:26:36;;;;;;;2.85;1.55;;;37.70;34.80;;;;;;5077776;28;20111;-77
2022/05/15 16:29:06;;;;;;;2.50;1.88;;;36.90;34.90;;;;;;5075974;28;20041;-76
2022/05/15 16:31:32;;;;;;;4.55;1.67;;;35.90;37.20;;;;;;5078023;28;20025;-75
2022/05/15 16:33:57;;;;;;;3.50;1.55;;;34.70;36.50;;;;;;5077313;28;20029;-77
2022/05/15 16:36:23;;;;;;;4.88;1.67;;;33.50;38.00;;;;;;5077085;28;20032;-77
2022/05/15 16:38:49;;;;;;;6.50;1.70;;;32.80;38.70;;;;;;5078615;28;20040;-81
2022/05/15 16:41:14;;;;;;;2.92;1.50;;;32.00;40.70;;;;;;5077856;28;20083;-78
2022/05/15 16:43:40;;;;;;;6.85;6.30;;;30.60;42.60;;;;;;5076692;28;20041;-76
2022/05/15 16:46:06;;;;;;;11.23;6.05;;;29.80;44.60;;;;;;5077147;28;20075;-77
2022/05/15 16:48:32;;;;;;;12.93;7.95;;;29.20;45.00;;;;;;5076844;28;20391;-77
2022/05/15 16:50:58;;;;;;;49.00;37.50;;;29.00;47.50;;;;;;5076445;28;20025;-78
2022/05/15 16:53:24;;;;;;;6.05;2.60;;;28.60;45.60;;;;;;5058392;28;20037;-81
2022/05/15 16:55:50;;;;;;;4.40;1.75;;;28.50;46.40;;;;;;5077932;28;20541;-80
2022/05/15 16:58:16;;;;;;;3.85;1.60;;;28.40;46.90;;;;;;5062834;28;20072;-78
2022/05/15 17:00:44;;;;;;;2.50;1.60;;;28.40;49.20;;;;;;5082301;28;20040;-78
2022/05/15 17:03:10;;;;;;;2.00;1.35;;;28.00;46.60;;;;;;5080899;28;20415;-80
2022/05/15 17:05:36;;;;;;;4.15;1.40;;;27.70;45.90;;;;;;5079591;28;20044;-79
2022/05/15 17:08:02;;;;;;;3.10;1.52;;;27.60;47.40;;;;;;5077650;28;20044;-79
2022/05/15 17:10:29;;;;;;;1.80;1.30;;;27.60;47.60;;;;;;5078135;28;20560;-82
2022/05/15 17:12:55;;;;;;;6.50;1.90;;;27.70;47.60;;;;;;5062067;28;20842;-79
2022/05/15 17:15:25;;;;;;;3.70;1.55;;;27.70;54.10;;;;;;5081940;28;20037;-82
2022/05/15 17:17:54;;;;;;;3.65;1.50;;;27.50;50.80;;;;;;5064378;28;20048;-82
2022/05/15 17:20:19;;;;;;;2.88;1.55;;;27.30;50.90;;;;;;5062940;28;20037;-80
2022/05/15 17:22:45;;;;;;;4.68;1.73;;;27.00;53.80;;;;;;5060055;28;20041;-77
2022/05/15 17:25:12;;;;;;;4.10;1.60;;;26.80;53.10;;;;;;5078010;28;20120;-84
2022/05/15 17:27:38;;;;;;;5.53;1.65;;;26.60;52.50;;;;;;5079393;28;20446;-81
2022/05/15 17:35:33;;;;;;;2.65;1.80;;;26.10;53.40;;;;;;5078789;28;20037;-79
2022/05/15 17:37:58;;;;;;;3.15;1.50;;;25.90;53.40;;;;;;5077783;28;20041;-78
2022/05/15 17:40:28;;;;;;;4.70;1.50;;;25.80;56.40;;;;;;5079181;28;20037;-77
2022/05/15 17:42:56;;;;;;;4.13;1.67;;;25.80;54.80;;;;;;5079781;28;20033;-78